sensor_id;sensor_type;location;lat;lon;timestamp;P1;durP1;ratioP1;P2;durP2;ratioP2
3811;SDS011;1921;49.368;11.068;2023-04-10T00:02:17;54.60;;;49.20;;
3811;SDS011;1921;49.368;11.068;2023-04-10T00:04:43;52.93;;;48.03;;
3811;SDS011;1921;49.368;11.068;2023-04-10T00:07:08;53.03;;;48.00;;
3811;SDS011;1921;49.368;11.068;2023-04-10T00:09:35;53.30;;;48.00;;
3811;SDS011;1921;49.368;11.068;2023-04-10T00:12:00;52.80;;;47.90;;
3811;SDS011;1921;49.368;11.068;2023-04-10T00:14:26;52.73;;;47.53;;
3811;SDS011;1921;49.368;11.068;2023-04-10T00:16:52;52.50;;;47.60;;
3811;SDS011;1921;49.368;11.068;2023-04-10T00:19:17;53.87;;;48.67;;
3811;SDS011;1921;49.368;11.068;2023-04-10T00:21:43;54.33;;;48.77;;
3811;SDS011;1921;49.368;11.068;2023-04-10T00:24:09;53.97;;;48.80;;
3811;SDS011;1921;49.368;11.068;2023-04-10T00:26:35;53.73;;;48.83;;
3811;SDS011;1921;49.368;11.068;2023-04-10T00:29:01;52.57;;;47.60;;
3811;SDS011;1921;49.368;11.068;2023-04-10T00:31:28;53.77;;;48.53;;
3811;SDS011;1921;49.368;11.068;2023-04-10T00:33:54;51.80;;;47.00;;
3811;SDS011;1921;49.368;11.068;2023-04-10T00:36:20;51.83;;;46.93;;
3811;SDS011;1921;49.368;11.068;2023-04-10T00:38:47;53.70;;;48.47;;
3811;SDS011;1921;49.368;11.068;2023-04-10T00:41:13;52.27;;;47.60;;
3811;SDS011;1921;49.368;11.068;2023-04-10T00:43:40;53.80;;;48.57;;
3811;SDS011;1921;49.368;11.068;2023-04-10T00:46:06;54.10;;;48.80;;
3811;SDS011;1921;49.368;11.068;2023-04-10T00:48:32;52.37;;;47.47;;
3811;SDS011;1921;49.368;11.068;2023-04-10T00:50:59;52.70;;;47.77;;
3811;SDS011;1921;49.368;11.068;2023-04-10T00:53:25;54.63;;;49.10;;
3811;SDS011;1921;49.368;11.068;2023-04-10T00:55:52;56.83;;;49.10;;
3811;SDS011;1921;49.368;11.068;2023-04-10T00:58:18;53.60;;;48.17;;
3811;SDS011;1921;49.368;11.068;2023-04-10T01:00:45;50.57;;;46.23;;
3811;SDS011;1921;49.368;11.068;2023-04-10T01:03:11;52.13;;;47.37;;
3811;SDS011;1921;49.368;11.068;2023-04-10T01:08:38;53.93;;;48.30;;
3811;SDS011;1921;49.368;11.068;2023-04-10T01:11:31;52.90;;;47.53;;
3811;SDS011;1921;49.368;11.068;2023-04-10T01:14:31;52.17;;;47.30;;
3811;SDS011;1921;49.368;11.068;2023-04-10T01:20:10;48.80;;;44.87;;
3811;SDS011;1921;49.368;11.068;2023-04-10T01:26:02;53.47;;;48.27;;
3811;SDS011;1921;49.368;11.068;2023-04-10T01:34:24;51.83;;;46.93;;
3811;SDS011;1921;49.368;11.068;2023-04-10T01:37:01;52.03;;;46.83;;
3811;SDS011;1921;49.368;11.068;2023-04-10T01:39:30;52.10;;;46.97;;
3811;SDS011;1921;49.368;11.068;2023-04-10T01:42:01;52.00;;;47.30;;
3811;SDS011;1921;49.368;11.068;2023-04-10T01:44:31;52.67;;;47.77;;
3811;SDS011;1921;49.368;11.068;2023-04-10T01:46:58;53.10;;;47.53;;
3811;SDS011;1921;49.368;11.068;2023-04-10T01:49:26;54.30;;;48.80;;
3811;SDS011;1921;49.368;11.068;2023-04-10T01:51:54;51.70;;;46.73;;
3811;SDS011;1921;49.368;11.068;2023-04-10T01:54:29;53.60;;;48.60;;
3811;SDS011;1921;49.368;11.068;2023-04-10T01:56:58;53.57;;;48.37;;
3811;SDS011;1921;49.368;11.068;2023-04-10T01:59:26;52.00;;;46.57;;
3811;SDS011;1921;49.368;11.068;2023-04-10T02:01:56;53.63;;;48.37;;
3811;SDS011;1921;49.368;11.068;2023-04-10T02:04:23;51.60;;;46.80;;
3811;SDS011;1921;49.368;11.068;2023-04-10T02:12:21;51.67;;;46.67;;
3811;SDS011;1921;49.368;11.068;2023-04-10T02:14:57;51.27;;;46.40;;
3811;SDS011;1921;49.368;11.068;2023-04-10T02:17:26;52.70;;;47.45;;
3811;SDS011;1921;49.368;11.068;2023-04-10T02:19:57;50.77;;;46.10;;
3811;SDS011;1921;49.368;11.068;2023-04-10T02:22:24;51.30;;;46.47;;
3811;SDS011;1921;49.368;11.068;2023-04-10T02:24:51;52.13;;;47.37;;
3811;SDS011;1921;49.368;11.068;2023-04-10T02:27:30;51.37;;;46.57;;
3811;SDS011;1921;49.368;11.068;2023-04-10T02:29:58;51.90;;;46.83;;
3811;SDS011;1921;49.368;11.068;2023-04-10T02:32:25;53.83;;;48.47;;
3811;SDS011;1921;49.368;11.068;2023-04-10T02:34:51;53.27;;;48.37;;
3811;SDS011;1921;49.368;11.068;2023-04-10T02:37:17;51.87;;;47.30;;
3811;SDS011;1921;49.368;11.068;2023-04-10T02:39:42;51.80;;;46.87;;
3811;SDS011;1921;49.368;11.068;2023-04-10T02:42:08;53.77;;;48.47;;
3811;SDS011;1921;49.368;11.068;2023-04-10T02:44:34;51.90;;;46.87;;
3811;SDS011;1921;49.368;11.068;2023-04-10T02:47:00;52.50;;;47.63;;
3811;SDS011;1921;49.368;11.068;2023-04-10T02:49:25;52.47;;;47.40;;
3811;SDS011;1921;49.368;11.068;2023-04-10T02:51:51;52.33;;;47.43;;
3811;SDS011;1921;49.368;11.068;2023-04-10T02:54:17;55.40;;;49.90;;
3811;SDS011;1921;49.368;11.068;2023-04-10T02:56:42;54.87;;;49.00;;
3811;SDS011;1921;49.368;11.068;2023-04-10T02:59:08;51.70;;;47.00;;
3811;SDS011;1921;49.368;11.068;2023-04-10T03:01:34;52.83;;;47.47;;
3811;SDS011;1921;49.368;11.068;2023-04-10T03:04:00;52.80;;;47.97;;
3811;SDS011;1921;49.368;11.068;2023-04-10T03:06:27;53.10;;;48.20;;
3811;SDS011;1921;49.368;11.068;2023-04-10T03:08:53;52.20;;;47.30;;
3811;SDS011;1921;49.368;11.068;2023-04-10T03:11:20;54.00;;;48.40;;
3811;SDS011;1921;49.368;11.068;2023-04-10T03:13:46;54.83;;;49.50;;
3811;SDS011;1921;49.368;11.068;2023-04-10T03:16:12;53.87;;;48.17;;
3811;SDS011;1921;49.368;11.068;2023-04-10T03:18:39;53.13;;;48.07;;
3811;SDS011;1921;49.368;11.068;2023-04-10T03:21:05;53.30;;;47.97;;
3811;SDS011;1921;49.368;11.068;2023-04-10T03:23:31;53.37;;;48.27;;
3811;SDS011;1921;49.368;11.068;2023-04-10T03:25:57;55.97;;;50.03;;
3811;SDS011;1921;49.368;11.068;2023-04-10T03:28:23;53.00;;;48.00;;
3811;SDS011;1921;49.368;11.068;2023-04-10T03:30:48;44.10;;;40.90;;
3811;SDS011;1921;49.368;11.068;2023-04-10T03:33:14;53.60;;;48.30;;
3811;SDS011;1921;49.368;11.068;2023-04-10T03:35:40;51.60;;;46.87;;
3811;SDS011;1921;49.368;11.068;2023-04-10T03:38:06;51.93;;;46.63;;
3811;SDS011;1921;49.368;11.068;2023-04-10T03:40:32;53.60;;;48.23;;
3811;SDS011;1921;49.368;11.068;2023-04-10T03:42:58;54.37;;;48.50;;
3811;SDS011;1921;49.368;11.068;2023-04-10T03:45:24;52.90;;;47.70;;
3811;SDS011;1921;49.368;11.068;2023-04-10T03:47:51;52.47;;;47.40;;
3811;SDS011;1921;49.368;11.068;2023-04-10T03:50:17;53.30;;;47.90;;
3811;SDS011;1921;49.368;11.068;2023-04-10T03:52:43;54.70;;;48.73;;
3811;SDS011;1921;49.368;11.068;2023-04-10T03:55:08;53.80;;;48.80;;
3811;SDS011;1921;49.368;11.068;2023-04-10T03:57:35;54.07;;;48.70;;
3811;SDS011;1921;49.368;11.068;2023-04-10T04:00:01;54.37;;;48.87;;
3811;SDS011;1921;49.368;11.068;2023-04-10T04:02:28;53.17;;;48.00;;
3811;SDS011;1921;49.368;11.068;2023-04-10T04:04:53;53.10;;;48.17;;
3811;SDS011;1921;49.368;11.068;2023-04-10T04:07:19;54.00;;;48.70;;
3811;SDS011;1921;49.368;11.068;2023-04-10T04:09:45;52.23;;;47.17;;
3811;SDS011;1921;49.368;11.068;2023-04-10T04:12:11;53.40;;;47.47;;
3811;SDS011;1921;49.368;11.068;2023-04-10T04:14:36;53.50;;;48.20;;
3811;SDS011;1921;49.368;11.068;2023-04-10T04:17:02;54.90;;;49.30;;
3811;SDS011;1921;49.368;11.068;2023-04-10T04:19:28;54.10;;;48.60;;
3811;SDS011;1921;49.368;11.068;2023-04-10T04:21:54;53.53;;;48.00;;
3811;SDS011;1921;49.368;11.068;2023-04-10T04:24:20;59.40;;;49.67;;
3811;SDS011;1921;49.368;11.068;2023-04-10T04:26:46;55.23;;;49.43;;
3811;SDS011;1921;49.368;11.068;2023-04-10T04:29:11;54.07;;;48.90;;
3811;SDS011;1921;49.368;11.068;2023-04-10T04:31:37;53.20;;;48.27;;
3811;SDS011;1921;49.368;11.068;2023-04-10T04:34:03;54.37;;;48.77;;
3811;SDS011;1921;49.368;11.068;2023-04-10T04:36:28;53.50;;;47.97;;
3811;SDS011;1921;49.368;11.068;2023-04-10T04:38:55;56.20;;;50.20;;
3811;SDS011;1921;49.368;11.068;2023-04-10T04:41:20;52.50;;;47.60;;
3811;SDS011;1921;49.368;11.068;2023-04-10T04:43:46;53.83;;;48.50;;
3811;SDS011;1921;49.368;11.068;2023-04-10T04:46:13;54.83;;;49.20;;
3811;SDS011;1921;49.368;11.068;2023-04-10T04:48:40;55.80;;;49.90;;
3811;SDS011;1921;49.368;11.068;2023-04-10T04:51:06;53.23;;;48.10;;
3811;SDS011;1921;49.368;11.068;2023-04-10T04:53:32;58.33;;;50.83;;
3811;SDS011;1921;49.368;11.068;2023-04-10T04:55:57;57.40;;;49.93;;
3811;SDS011;1921;49.368;11.068;2023-04-10T04:58:23;55.30;;;49.83;;
3811;SDS011;1921;49.368;11.068;2023-04-10T05:00:52;54.87;;;49.60;;
3811;SDS011;1921;49.368;11.068;2023-04-10T05:03:19;56.67;;;50.70;;
3811;SDS011;1921;49.368;11.068;2023-04-10T05:05:45;60.47;;;50.57;;
3811;SDS011;1921;49.368;11.068;2023-04-10T05:08:11;55.60;;;49.90;;
3811;SDS011;1921;49.368;11.068;2023-04-10T05:10:37;56.47;;;50.53;;
3811;SDS011;1921;49.368;11.068;2023-04-10T05:13:03;55.83;;;50.00;;
3811;SDS011;1921;49.368;11.068;2023-04-10T05:15:28;58.20;;;51.80;;
3811;SDS011;1921;49.368;11.068;2023-04-10T05:17:55;58.40;;;52.10;;
3811;SDS011;1921;49.368;11.068;2023-04-10T05:20:20;57.20;;;51.20;;
3811;SDS011;1921;49.368;11.068;2023-04-10T05:22:46;58.77;;;51.20;;
3811;SDS011;1921;49.368;11.068;2023-04-10T05:25:12;55.97;;;50.23;;
3811;SDS011;1921;49.368;11.068;2023-04-10T05:27:38;56.93;;;50.97;;
3811;SDS011;1921;49.368;11.068;2023-04-10T05:30:04;56.33;;;50.50;;
3811;SDS011;1921;49.368;11.068;2023-04-10T05:32:30;56.97;;;50.77;;
3811;SDS011;1921;49.368;11.068;2023-04-10T05:34:56;54.60;;;48.90;;
3811;SDS011;1921;49.368;11.068;2023-04-10T05:37:22;52.83;;;47.53;;
3811;SDS011;1921;49.368;11.068;2023-04-10T05:39:48;53.50;;;48.07;;
3811;SDS011;1921;49.368;11.068;2023-04-10T05:42:13;56.03;;;50.27;;
3811;SDS011;1921;49.368;11.068;2023-04-10T05:44:40;56.53;;;50.80;;
3811;SDS011;1921;49.368;11.068;2023-04-10T05:47:05;57.50;;;51.40;;
3811;SDS011;1921;49.368;11.068;2023-04-10T05:49:31;61.73;;;52.80;;
3811;SDS011;1921;49.368;11.068;2023-04-10T05:51:57;59.40;;;49.73;;
3811;SDS011;1921;49.368;11.068;2023-04-10T05:54:23;56.67;;;50.90;;
3811;SDS011;1921;49.368;11.068;2023-04-10T05:56:49;57.80;;;51.50;;
3811;SDS011;1921;49.368;11.068;2023-04-10T05:59:14;74.43;;;52.57;;
3811;SDS011;1921;49.368;11.068;2023-04-10T06:01:40;51.57;;;46.67;;
3811;SDS011;1921;49.368;11.068;2023-04-10T06:04:06;55.13;;;49.27;;
3811;SDS011;1921;49.368;11.068;2023-04-10T06:06:32;60.07;;;52.90;;
3811;SDS011;1921;49.368;11.068;2023-04-10T06:08:57;58.80;;;52.50;;
3811;SDS011;1921;49.368;11.068;2023-04-10T06:11:23;60.10;;;53.50;;
3811;SDS011;1921;49.368;11.068;2023-04-10T06:13:49;57.20;;;51.20;;
3811;SDS011;1921;49.368;11.068;2023-04-10T06:16:15;57.67;;;51.30;;
3811;SDS011;1921;49.368;11.068;2023-04-10T06:18:41;56.83;;;50.90;;
3811;SDS011;1921;49.368;11.068;2023-04-10T06:21:07;58.03;;;51.80;;
3811;SDS011;1921;49.368;11.068;2023-04-10T06:23:33;57.83;;;51.33;;
3811;SDS011;1921;49.368;11.068;2023-04-10T06:25:58;57.37;;;51.43;;
3811;SDS011;1921;49.368;11.068;2023-04-10T06:28:25;57.27;;;51.10;;
3811;SDS011;1921;49.368;11.068;2023-04-10T06:30:51;54.03;;;48.50;;
3811;SDS011;1921;49.368;11.068;2023-04-10T06:33:18;58.53;;;52.23;;
3811;SDS011;1921;49.368;11.068;2023-04-10T06:35:43;59.07;;;52.40;;
3811;SDS011;1921;49.368;11.068;2023-04-10T06:38:09;59.20;;;52.80;;
3811;SDS011;1921;49.368;11.068;2023-04-10T06:40:36;55.67;;;49.70;;
3811;SDS011;1921;49.368;11.068;2023-04-10T06:43:02;58.30;;;51.90;;
3811;SDS011;1921;49.368;11.068;2023-04-10T06:45:27;59.47;;;53.07;;
3811;SDS011;1921;49.368;11.068;2023-04-10T06:47:53;57.40;;;51.50;;
3811;SDS011;1921;49.368;11.068;2023-04-10T06:50:19;60.67;;;52.97;;
3811;SDS011;1921;49.368;11.068;2023-04-10T06:52:45;58.40;;;52.00;;
3811;SDS011;1921;49.368;11.068;2023-04-10T06:55:12;57.70;;;51.40;;
3811;SDS011;1921;49.368;11.068;2023-04-10T06:57:38;58.53;;;51.50;;
3811;SDS011;1921;49.368;11.068;2023-04-10T07:00:05;59.27;;;52.87;;
3811;SDS011;1921;49.368;11.068;2023-04-10T07:02:32;55.90;;;50.00;;
3811;SDS011;1921;49.368;11.068;2023-04-10T07:04:57;57.47;;;51.20;;
3811;SDS011;1921;49.368;11.068;2023-04-10T07:07:23;58.70;;;52.40;;
3811;SDS011;1921;49.368;11.068;2023-04-10T07:09:49;58.47;;;51.53;;
3811;SDS011;1921;49.368;11.068;2023-04-10T07:12:15;58.87;;;52.40;;
3811;SDS011;1921;49.368;11.068;2023-04-10T07:14:41;59.93;;;52.40;;
3811;SDS011;1921;49.368;11.068;2023-04-10T07:17:07;59.33;;;52.90;;
3811;SDS011;1921;49.368;11.068;2023-04-10T07:19:33;60.23;;;52.63;;
3811;SDS011;1921;49.368;11.068;2023-04-10T07:21:58;58.77;;;51.30;;
3811;SDS011;1921;49.368;11.068;2023-04-10T07:24:24;56.63;;;50.67;;
3811;SDS011;1921;49.368;11.068;2023-04-10T07:26:50;58.63;;;52.43;;
3811;SDS011;1921;49.368;11.068;2023-04-10T07:29:16;61.30;;;52.93;;
3811;SDS011;1921;49.368;11.068;2023-04-10T07:31:42;58.90;;;52.50;;
3811;SDS011;1921;49.368;11.068;2023-04-10T07:34:09;60.17;;;52.53;;
3811;SDS011;1921;49.368;11.068;2023-04-10T07:36:36;57.10;;;50.87;;
3811;SDS011;1921;49.368;11.068;2023-04-10T07:39:02;63.70;;;52.30;;
3811;SDS011;1921;49.368;11.068;2023-04-10T07:41:28;59.17;;;52.10;;
3811;SDS011;1921;49.368;11.068;2023-04-10T07:43:53;61.50;;;52.67;;
3811;SDS011;1921;49.368;11.068;2023-04-10T07:46:19;56.87;;;50.73;;
3811;SDS011;1921;49.368;11.068;2023-04-10T07:48:45;59.93;;;53.37;;
3811;SDS011;1921;49.368;11.068;2023-04-10T07:51:11;58.10;;;51.03;;
3811;SDS011;1921;49.368;11.068;2023-04-10T07:53:38;62.80;;;53.20;;
3811;SDS011;1921;49.368;11.068;2023-04-10T07:56:04;59.30;;;52.80;;
3811;SDS011;1921;49.368;11.068;2023-04-10T07:58:30;58.87;;;52.40;;
3811;SDS011;1921;49.368;11.068;2023-04-10T08:00:57;59.20;;;52.70;;
3811;SDS011;1921;49.368;11.068;2023-04-10T08:03:23;57.63;;;51.43;;
3811;SDS011;1921;49.368;11.068;2023-04-10T08:05:50;57.37;;;51.27;;
3811;SDS011;1921;49.368;11.068;2023-04-10T08:08:16;56.30;;;50.27;;
3811;SDS011;1921;49.368;11.068;2023-04-10T08:10:41;55.70;;;49.70;;
3811;SDS011;1921;49.368;11.068;2023-04-10T08:13:09;56.57;;;50.37;;
3811;SDS011;1921;49.368;11.068;2023-04-10T08:15:35;58.23;;;51.93;;
3811;SDS011;1921;49.368;11.068;2023-04-10T08:18:01;58.10;;;51.43;;
3811;SDS011;1921;49.368;11.068;2023-04-10T08:20:26;61.53;;;52.30;;
3811;SDS011;1921;49.368;11.068;2023-04-10T08:22:52;57.70;;;51.40;;
3811;SDS011;1921;49.368;11.068;2023-04-10T08:25:18;59.77;;;52.87;;
3811;SDS011;1921;49.368;11.068;2023-04-10T08:27:44;58.30;;;51.97;;
3811;SDS011;1921;49.368;11.068;2023-04-10T08:30:10;57.77;;;51.47;;
3811;SDS011;1921;49.368;11.068;2023-04-10T08:32:37;58.07;;;51.67;;
3811;SDS011;1921;49.368;11.068;2023-04-10T08:35:03;58.47;;;52.13;;
3811;SDS011;1921;49.368;11.068;2023-04-10T08:37:30;56.07;;;50.10;;
3811;SDS011;1921;49.368;11.068;2023-04-10T08:39:55;58.63;;;51.77;;
3811;SDS011;1921;49.368;11.068;2023-04-10T08:42:22;59.27;;;52.10;;
3811;SDS011;1921;49.368;11.068;2023-04-10T08:44:49;59.40;;;51.10;;
3811;SDS011;1921;49.368;11.068;2023-04-10T08:47:16;57.10;;;50.90;;
3811;SDS011;1921;49.368;11.068;2023-04-10T08:49:52;60.60;;;52.70;;
3811;SDS011;1921;49.368;11.068;2023-04-10T08:52:20;60.60;;;51.20;;
3811;SDS011;1921;49.368;11.068;2023-04-10T08:54:50;60.13;;;52.33;;
3811;SDS011;1921;49.368;11.068;2023-04-10T08:57:20;62.70;;;52.10;;
3811;SDS011;1921;49.368;11.068;2023-04-10T08:59:46;58.00;;;51.70;;
3811;SDS011;1921;49.368;11.068;2023-04-10T09:02:13;58.83;;;52.30;;
3811;SDS011;1921;49.368;11.068;2023-04-10T09:04:41;62.03;;;52.73;;
3811;SDS011;1921;49.368;11.068;2023-04-10T09:07:19;61.53;;;53.07;;
3811;SDS011;1921;49.368;11.068;2023-04-10T09:09:45;61.33;;;52.30;;
3811;SDS011;1921;49.368;11.068;2023-04-10T09:12:11;60.13;;;53.03;;
3811;SDS011;1921;49.368;11.068;2023-04-10T09:14:39;60.73;;;52.87;;
3811;SDS011;1921;49.368;11.068;2023-04-10T09:17:15;62.33;;;53.27;;
3811;SDS011;1921;49.368;11.068;2023-04-10T09:19:43;60.50;;;52.20;;
3811;SDS011;1921;49.368;11.068;2023-04-10T09:22:10;63.83;;;53.57;;
3811;SDS011;1921;49.368;11.068;2023-04-10T09:24:41;60.13;;;52.23;;
3811;SDS011;1921;49.368;11.068;2023-04-10T09:27:08;62.07;;;52.73;;
3811;SDS011;1921;49.368;11.068;2023-04-10T09:29:41;58.77;;;51.40;;
3811;SDS011;1921;49.368;11.068;2023-04-10T09:32:09;58.87;;;51.83;;
3811;SDS011;1921;49.368;11.068;2023-04-10T09:35:12;57.93;;;51.47;;
3811;SDS011;1921;49.368;11.068;2023-04-10T09:37:31;62.57;;;51.83;;
3811;SDS011;1921;49.368;11.068;2023-04-10T09:40:01;59.63;;;51.40;;
3811;SDS011;1921;49.368;11.068;2023-04-10T09:42:34;61.37;;;52.73;;
3811;SDS011;1921;49.368;11.068;2023-04-10T09:45:02;60.17;;;51.93;;
3811;SDS011;1921;49.368;11.068;2023-04-10T09:47:29;61.67;;;52.80;;
3811;SDS011;1921;49.368;11.068;2023-04-10T09:49:56;61.07;;;51.03;;
3811;SDS011;1921;49.368;11.068;2023-04-10T09:52:30;61.17;;;52.77;;
3811;SDS011;1921;49.368;11.068;2023-04-10T09:55:01;60.33;;;51.80;;
3811;SDS011;1921;49.368;11.068;2023-04-10T09:57:34;59.97;;;52.27;;
3811;SDS011;1921;49.368;11.068;2023-04-10T10:00:01;60.80;;;52.10;;
3811;SDS011;1921;49.368;11.068;2023-04-10T10:02:30;58.87;;;51.50;;
3811;SDS011;1921;49.368;11.068;2023-04-10T10:05:03;59.47;;;52.10;;
3811;SDS011;1921;49.368;11.068;2023-04-10T10:07:29;57.77;;;51.40;;
3811;SDS011;1921;49.368;11.068;2023-04-10T10:09:56;59.10;;;51.90;;
3811;SDS011;1921;49.368;11.068;2023-04-10T10:12:23;57.70;;;51.40;;
3811;SDS011;1921;49.368;11.068;2023-04-10T10:18:19;58.70;;;51.83;;
3811;SDS011;1921;49.368;11.068;2023-04-10T10:21:12;56.97;;;50.70;;
3811;SDS011;1921;49.368;11.068;2023-04-10T10:23:38;59.83;;;51.43;;
3811;SDS011;1921;49.368;11.068;2023-04-10T10:26:06;59.53;;;52.53;;
3811;SDS011;1921;49.368;11.068;2023-04-10T10:28:33;60.00;;;52.27;;
3811;SDS011;1921;49.368;11.068;2023-04-10T10:31:01;59.40;;;51.57;;
3811;SDS011;1921;49.368;11.068;2023-04-10T10:33:28;61.53;;;53.30;;
3811;SDS011;1921;49.368;11.068;2023-04-10T10:36:01;62.83;;;53.10;;
3811;SDS011;1921;49.368;11.068;2023-04-10T10:38:28;60.80;;;52.50;;
3811;SDS011;1921;49.368;11.068;2023-04-10T10:43:41;59.83;;;52.30;;
3811;SDS011;1921;49.368;11.068;2023-04-10T10:46:57;60.47;;;52.13;;
3811;SDS011;1921;49.368;11.068;2023-04-10T10:49:52;60.90;;;51.90;;
3811;SDS011;1921;49.368;11.068;2023-04-10T10:58:07;59.23;;;51.73;;
3811;SDS011;1921;49.368;11.068;2023-04-10T11:05:49;56.80;;;50.50;;
3811;SDS011;1921;49.368;11.068;2023-04-10T11:08:33;58.83;;;51.90;;
3811;SDS011;1921;49.368;11.068;2023-04-10T11:11:08;58.23;;;51.00;;
3811;SDS011;1921;49.368;11.068;2023-04-10T11:13:38;61.83;;;51.60;;
3811;SDS011;1921;49.368;11.068;2023-04-10T11:16:14;58.00;;;51.60;;
3811;SDS011;1921;49.368;11.068;2023-04-10T11:29:02;58.20;;;51.30;;
3811;SDS011;1921;49.368;11.068;2023-04-10T11:31:44;56.97;;;50.73;;
3811;SDS011;1921;49.368;11.068;2023-04-10T11:34:23;56.50;;;49.80;;
3811;SDS011;1921;49.368;11.068;2023-04-10T11:36:51;58.57;;;51.20;;
3811;SDS011;1921;49.368;11.068;2023-04-10T11:39:17;59.23;;;51.43;;
3811;SDS011;1921;49.368;11.068;2023-04-10T11:41:46;57.37;;;51.07;;
3811;SDS011;1921;49.368;11.068;2023-04-10T11:44:16;58.60;;;51.13;;
3811;SDS011;1921;49.368;11.068;2023-04-10T11:46:56;57.53;;;50.67;;
3811;SDS011;1921;49.368;11.068;2023-04-10T11:49:24;57.57;;;50.90;;
3811;SDS011;1921;49.368;11.068;2023-04-10T11:51:52;58.77;;;51.50;;
3811;SDS011;1921;49.368;11.068;2023-04-10T11:54:18;59.33;;;51.40;;
3811;SDS011;1921;49.368;11.068;2023-04-10T11:56:56;57.43;;;50.30;;
3811;SDS011;1921;49.368;11.068;2023-04-10T11:59:48;56.60;;;50.40;;
3811;SDS011;1921;49.368;11.068;2023-04-10T12:02:15;57.37;;;50.93;;
3811;SDS011;1921;49.368;11.068;2023-04-10T12:04:41;57.10;;;50.17;;
3811;SDS011;1921;49.368;11.068;2023-04-10T12:07:08;55.97;;;49.90;;
3811;SDS011;1921;49.368;11.068;2023-04-10T12:09:34;56.30;;;50.20;;
3811;SDS011;1921;49.368;11.068;2023-04-10T12:12:01;56.97;;;50.70;;
3811;SDS011;1921;49.368;11.068;2023-04-10T12:14:33;55.37;;;49.37;;
3811;SDS011;1921;49.368;11.068;2023-04-10T12:17:02;57.57;;;51.07;;
3811;SDS011;1921;49.368;11.068;2023-04-10T12:19:33;57.57;;;51.27;;
3811;SDS011;1921;49.368;11.068;2023-04-10T12:22:00;55.80;;;49.77;;
3811;SDS011;1921;49.368;11.068;2023-04-10T12:27:18;58.97;;;50.97;;
3811;SDS011;1921;49.368;11.068;2023-04-10T12:29:50;56.30;;;50.20;;
3811;SDS011;1921;49.368;11.068;2023-04-10T12:32:17;55.53;;;49.50;;
3811;SDS011;1921;49.368;11.068;2023-04-10T12:34:50;57.20;;;50.70;;
3811;SDS011;1921;49.368;11.068;2023-04-10T12:37:18;57.33;;;51.00;;
3811;SDS011;1921;49.368;11.068;2023-04-10T12:39:44;58.43;;;51.60;;
3811;SDS011;1921;49.368;11.068;2023-04-10T12:42:20;58.73;;;50.80;;
3811;SDS011;1921;49.368;11.068;2023-04-10T12:44:50;57.00;;;50.70;;
3811;SDS011;1921;49.368;11.068;2023-04-10T12:47:22;56.87;;;50.60;;
3811;SDS011;1921;49.368;11.068;2023-04-10T12:52:34;56.90;;;50.70;;
3811;SDS011;1921;49.368;11.068;2023-04-10T12:55:07;56.80;;;50.57;;
3811;SDS011;1921;49.368;11.068;2023-04-10T12:57:44;58.23;;;50.30;;
3811;SDS011;1921;49.368;11.068;2023-04-10T13:00:13;59.60;;;51.27;;
3811;SDS011;1921;49.368;11.068;2023-04-10T13:02:44;57.97;;;51.30;;
3811;SDS011;1921;49.368;11.068;2023-04-10T13:05:10;57.97;;;50.90;;
3811;SDS011;1921;49.368;11.068;2023-04-10T13:07:37;58.40;;;51.27;;
3811;SDS011;1921;49.368;11.068;2023-04-10T13:10:03;57.00;;;50.40;;
3811;SDS011;1921;49.368;11.068;2023-04-10T13:12:31;59.10;;;51.40;;
3811;SDS011;1921;49.368;11.068;2023-04-10T13:14:58;58.47;;;51.30;;
3811;SDS011;1921;49.368;11.068;2023-04-10T13:17:25;58.80;;;51.40;;
3811;SDS011;1921;49.368;11.068;2023-04-10T13:19:51;56.90;;;50.60;;
3811;SDS011;1921;49.368;11.068;2023-04-10T13:22:17;58.20;;;51.13;;
3811;SDS011;1921;49.368;11.068;2023-04-10T13:24:44;59.10;;;51.23;;
3811;SDS011;1921;49.368;11.068;2023-04-10T13:27:10;60.27;;;52.20;;
3811;SDS011;1921;49.368;11.068;2023-04-10T13:29:37;59.83;;;51.97;;
3811;SDS011;1921;49.368;11.068;2023-04-10T13:32:05;59.70;;;51.00;;
3811;SDS011;1921;49.368;11.068;2023-04-10T13:34:31;58.57;;;51.30;;
3811;SDS011;1921;49.368;11.068;2023-04-10T13:36:57;62.17;;;52.47;;
3811;SDS011;1921;49.368;11.068;2023-04-10T13:39:24;59.47;;;51.63;;
3811;SDS011;1921;49.368;11.068;2023-04-10T13:41:52;59.00;;;51.70;;
3811;SDS011;1921;49.368;11.068;2023-04-10T13:44:18;58.20;;;51.20;;
3811;SDS011;1921;49.368;11.068;2023-04-10T13:46:44;59.03;;;51.73;;
3811;SDS011;1921;49.368;11.068;2023-04-10T13:49:10;61.63;;;50.70;;
3811;SDS011;1921;49.368;11.068;2023-04-10T13:51:35;59.63;;;49.67;;
3811;SDS011;1921;49.368;11.068;2023-04-10T13:54:01;59.60;;;51.60;;
3811;SDS011;1921;49.368;11.068;2023-04-10T13:56:28;57.10;;;50.87;;
3811;SDS011;1921;49.368;11.068;2023-04-10T13:58:54;56.90;;;49.90;;
3811;SDS011;1921;49.368;11.068;2023-04-10T14:01:20;57.97;;;50.80;;
3811;SDS011;1921;49.368;11.068;2023-04-10T14:03:46;58.13;;;51.00;;
3811;SDS011;1921;49.368;11.068;2023-04-10T14:06:12;57.20;;;50.37;;
3811;SDS011;1921;49.368;11.068;2023-04-10T14:08:38;56.97;;;50.70;;
3811;SDS011;1921;49.368;11.068;2023-04-10T14:11:04;57.50;;;51.10;;
3811;SDS011;1921;49.368;11.068;2023-04-10T14:13:30;57.03;;;50.80;;
3811;SDS011;1921;49.368;11.068;2023-04-10T14:15:55;56.43;;;50.13;;
3811;SDS011;1921;49.368;11.068;2023-04-10T14:18:21;57.70;;;51.27;;
3811;SDS011;1921;49.368;11.068;2023-04-10T14:20:47;56.50;;;50.40;;
3811;SDS011;1921;49.368;11.068;2023-04-10T14:23:13;56.83;;;50.60;;
3811;SDS011;1921;49.368;11.068;2023-04-10T14:25:42;57.50;;;51.20;;
3811;SDS011;1921;49.368;11.068;2023-04-10T14:28:09;57.40;;;50.87;;
3811;SDS011;1921;49.368;11.068;2023-04-10T14:30:48;56.57;;;50.33;;
3811;SDS011;1921;49.368;11.068;2023-04-10T14:33:16;57.50;;;51.03;;
3811;SDS011;1921;49.368;11.068;2023-04-10T14:35:43;58.07;;;51.60;;
3811;SDS011;1921;49.368;11.068;2023-04-10T14:38:09;59.37;;;51.37;;
3811;SDS011;1921;49.368;11.068;2023-04-10T14:40:35;57.43;;;50.90;;
3811;SDS011;1921;49.368;11.068;2023-04-10T14:43:01;57.40;;;51.10;;
3811;SDS011;1921;49.368;11.068;2023-04-10T14:45:27;57.70;;;51.20;;
3811;SDS011;1921;49.368;11.068;2023-04-10T14:47:53;58.67;;;50.43;;
3811;SDS011;1921;49.368;11.068;2023-04-10T14:50:20;56.70;;;50.47;;
3811;SDS011;1921;49.368;11.068;2023-04-10T14:52:45;57.33;;;51.10;;
3811;SDS011;1921;49.368;11.068;2023-04-10T14:55:11;57.30;;;50.70;;
3811;SDS011;1921;49.368;11.068;2023-04-10T14:57:37;57.40;;;51.10;;
3811;SDS011;1921;49.368;11.068;2023-04-10T15:00:03;56.53;;;50.40;;
3811;SDS011;1921;49.368;11.068;2023-04-10T15:02:30;57.37;;;51.07;;
3811;SDS011;1921;49.368;11.068;2023-04-10T15:04:55;56.83;;;50.63;;
3811;SDS011;1921;49.368;11.068;2023-04-10T15:07:21;57.30;;;51.10;;
3811;SDS011;1921;49.368;11.068;2023-04-10T15:09:48;56.40;;;50.33;;
3811;SDS011;1921;49.368;11.068;2023-04-10T15:12:14;56.40;;;49.90;;
3811;SDS011;1921;49.368;11.068;2023-04-10T15:14:40;56.87;;;50.77;;
3811;SDS011;1921;49.368;11.068;2023-04-10T15:17:06;57.80;;;50.87;;
3811;SDS011;1921;49.368;11.068;2023-04-10T15:19:32;57.07;;;50.87;;
3811;SDS011;1921;49.368;11.068;2023-04-10T15:21:57;56.80;;;50.60;;
3811;SDS011;1921;49.368;11.068;2023-04-10T15:24:23;56.33;;;50.23;;
3811;SDS011;1921;49.368;11.068;2023-04-10T15:26:49;56.00;;;49.90;;
3811;SDS011;1921;49.368;11.068;2023-04-10T15:29:17;56.20;;;50.10;;
3811;SDS011;1921;49.368;11.068;2023-04-10T15:31:43;58.70;;;49.80;;